createdAt,value
2023-02-21T00:00:10.796Z,4.47
2023-02-21T00:03:26.378Z,4.00
2023-02-21T00:06:34.393Z,4.13
2023-02-21T00:09:42.970Z,4.68
2023-02-21T00:12:51.461Z,3.00
2023-02-21T00:15:59.939Z,3.60
2023-02-21T00:19:08.358Z,4.10
2023-02-21T00:22:23.323Z,3.83
2023-02-21T00:25:31.380Z,3.00
2023-02-21T00:28:46.329Z,3.20
2023-02-21T00:31:47.957Z,3.45
2023-02-21T00:35:02.372Z,3.10
2023-02-21T00:38:05.041Z,3.60
2023-02-21T00:41:19.365Z,3.03
2023-02-21T00:44:21.053Z,3.12
2023-02-21T00:47:35.309Z,2.83
2023-02-21T00:50:44.068Z,3.17
2023-02-21T00:53:52.339Z,2.83
2023-02-21T00:57:00.881Z,2.95
2023-02-21T01:00:10.342Z,2.92
2023-02-21T01:03:25.357Z,3.10
2023-02-21T01:06:33.346Z,2.97
2023-02-21T01:09:48.361Z,3.20
2023-02-21T01:12:56.357Z,2.80
2023-02-21T01:16:13.514Z,2.95
2023-02-21T01:19:28.398Z,2.47
2023-02-21T01:22:37.234Z,2.70
2023-02-21T01:25:45.344Z,3.10
2023-02-21T01:28:53.945Z,3.55
2023-02-21T01:32:02.407Z,3.33
2023-02-21T01:35:17.420Z,2.80
2023-02-21T01:38:26.041Z,2.67
2023-02-21T01:41:34.322Z,2.80
2023-02-21T01:44:53.340Z,2.70
2023-02-21T01:48:08.479Z,2.97
2023-02-21T01:51:14.351Z,2.62
2023-02-21T01:54:32.363Z,2.47
2023-02-21T01:57:48.353Z,2.33
2023-02-21T02:00:50.559Z,2.10
2023-02-21T02:04:08.919Z,2.40
2023-02-21T02:07:17.370Z,2.50
2023-02-21T02:10:30.080Z,1.90
2023-02-21T02:13:54.357Z,2.00
2023-02-21T02:17:38.465Z,2.03
2023-02-21T02:21:14.627Z,2.10
2023-02-21T02:24:44.396Z,1.92
2023-02-21T02:28:06.082Z,1.80
2023-02-21T02:31:39.508Z,2.17
2023-02-21T02:34:52.992Z,2.53
2023-02-21T02:38:26.358Z,2.22
2023-02-21T02:41:40.509Z,2.22
2023-02-21T02:45:07.379Z,1.83
2023-02-21T02:48:23.575Z,2.37
2023-02-21T02:51:41.389Z,2.03
2023-02-21T02:54:50.402Z,1.90
2023-02-21T02:58:00.668Z,1.40
2023-02-21T03:01:26.419Z,1.47
2023-02-21T03:04:59.360Z,1.77
2023-02-21T03:08:26.892Z,2.15
2023-02-21T03:11:54.416Z,1.73
2023-02-21T03:15:03.096Z,1.80
2023-02-21T03:18:27.402Z,1.20
2023-02-21T03:25:26.386Z,1.40
2023-02-21T03:28:43.410Z,0.70
2023-02-21T03:31:49.747Z,0.80
2023-02-21T03:35:04.397Z,0.80
2023-02-21T03:38:19.387Z,0.70
2023-02-21T03:41:27.370Z,0.90
2023-02-21T03:44:42.405Z,0.88
2023-02-21T03:47:44.191Z,0.68
2023-02-21T03:51:00.400Z,0.60
2023-02-21T03:54:08.377Z,0.70
2023-02-21T03:57:17.221Z,0.50
2023-02-21T04:00:26.445Z,0.80
2023-02-21T04:03:41.385Z,0.70
2023-02-21T04:06:49.409Z,1.00
2023-02-21T04:09:58.174Z,0.70
2023-02-21T04:13:06.423Z,0.90
2023-02-21T04:16:22.421Z,0.57
2023-02-21T04:19:37.432Z,0.60
2023-02-21T04:22:54.482Z,0.83
2023-02-21T04:26:09.385Z,0.83
2023-02-21T04:29:17.929Z,0.70
2023-02-21T04:32:32.529Z,0.77
2023-02-21T04:35:40.891Z,1.05
2023-02-21T04:38:55.427Z,0.87
2023-02-21T04:42:10.381Z,0.70
2023-02-21T04:45:18.454Z,0.40
2023-02-21T04:48:33.395Z,0.62
2023-02-21T04:51:35.262Z,0.65
2023-02-21T05:02:38.395Z,0.73
2023-02-21T05:05:53.405Z,0.90
2023-02-21T05:09:02.083Z,0.90
2023-02-21T05:12:16.471Z,0.63
2023-02-21T05:15:18.246Z,0.70
2023-02-21T05:18:32.449Z,0.73
2023-02-21T05:21:40.983Z,0.88
2023-02-21T05:24:49.480Z,1.00
2023-02-21T05:28:04.435Z,0.60
2023-02-21T05:31:13.636Z,0.70
2023-02-21T05:34:28.441Z,0.93
2023-02-21T05:37:31.426Z,0.70
2023-02-21T05:40:48.449Z,0.70
2023-02-21T05:47:48.393Z,0.80
2023-02-21T05:51:22.411Z,0.70
2023-02-21T05:54:31.261Z,0.80
2023-02-21T05:57:44.527Z,0.60
2023-02-21T06:00:53.778Z,0.90
2023-02-21T06:04:08.440Z,0.77
2023-02-21T06:07:16.994Z,0.77
2023-02-21T06:10:31.473Z,0.90
2023-02-21T06:13:39.446Z,0.88
2023-02-21T06:16:55.468Z,0.73
2023-02-21T06:20:03.560Z,0.70
2023-02-21T06:23:19.497Z,0.82
2023-02-21T06:26:28.420Z,0.62
2023-02-21T06:29:43.445Z,0.70
2023-02-21T06:32:51.413Z,0.77
2023-02-21T06:36:12.421Z,1.23
2023-02-21T06:39:22.118Z,0.68
2023-02-21T07:09:23.918Z,0.90
2023-02-21T07:13:11.470Z,0.83
2023-02-21T07:20:18.487Z,1.20
2023-02-21T07:35:42.621Z,0.62
2023-02-21T07:43:21.488Z,1.05
2023-02-21T07:54:24.482Z,0.68
2023-02-21T08:05:44.429Z,0.60
2023-02-21T08:12:31.571Z,1.15
2023-02-21T08:15:39.617Z,0.70
2023-02-21T08:19:30.536Z,0.80
2023-02-21T08:26:39.686Z,0.90
2023-02-21T08:29:51.658Z,0.73
2023-02-21T08:33:08.907Z,0.80
2023-02-21T08:40:31.231Z,0.90
2023-02-21T08:55:16.501Z,1.17
2023-02-21T08:58:25.476Z,0.90
2023-02-21T09:01:50.553Z,1.10
2023-02-21T09:05:14.652Z,0.85
2023-02-21T09:08:35.579Z,0.70
2023-02-21T09:11:44.666Z,1.10
2023-02-21T09:14:53.597Z,0.70
2023-02-21T09:18:02.045Z,0.80
2023-02-21T09:22:01.890Z,0.98
2023-02-21T09:25:53.222Z,0.60
2023-02-21T09:29:46.227Z,0.80
2023-02-21T09:33:08.202Z,0.93
2023-02-21T09:36:42.523Z,0.80
2023-02-21T09:43:37.595Z,1.00
2023-02-21T09:47:04.339Z,1.20
2023-02-21T09:55:04.568Z,0.77
2023-02-21T09:58:22.489Z,0.62
2023-02-21T10:01:46.932Z,0.90
2023-02-21T10:05:22.863Z,0.60
2023-02-21T10:08:51.815Z,1.00
2023-02-21T10:20:09.466Z,0.73
2023-02-21T10:31:56.600Z,1.00
2023-02-21T10:43:43.332Z,0.98
2023-02-21T10:47:23.630Z,0.80
2023-02-21T10:51:10.731Z,1.63
2023-02-21T10:54:23.455Z,1.25
2023-02-21T10:57:34.527Z,1.00
2023-02-21T11:00:53.581Z,1.10
2023-02-21T11:04:13.511Z,1.00
2023-02-21T11:11:47.785Z,1.60
2023-02-21T11:15:17.426Z,1.10
2023-02-21T11:22:47.578Z,0.87
2023-02-21T11:26:07.391Z,1.10
2023-02-21T11:29:29.037Z,1.00
2023-02-21T11:45:10.762Z,1.50
2023-02-21T11:48:20.322Z,1.05
2023-02-21T11:55:56.523Z,0.95
2023-02-21T11:59:57.679Z,0.90
2023-02-21T12:11:39.057Z,1.37
2023-02-21T12:15:20.607Z,1.17
2023-02-21T12:18:45.520Z,0.80
2023-02-21T12:22:21.522Z,1.20
2023-02-21T12:33:39.599Z,0.90
2023-02-21T12:41:21.565Z,1.00
2023-02-21T12:44:42.373Z,0.80
2023-02-21T12:48:05.692Z,0.90
2023-02-21T12:51:54.740Z,1.10
2023-02-21T12:55:12.717Z,1.03
2023-02-21T12:58:36.715Z,0.80
2023-02-21T13:01:50.500Z,1.40
2023-02-21T13:05:06.585Z,1.40
2023-02-21T13:08:22.591Z,1.20
2023-02-21T13:11:48.313Z,1.33
2023-02-21T13:15:02.537Z,1.20
2023-02-21T13:18:26.708Z,1.27
2023-02-21T13:22:11.822Z,1.35
2023-02-21T13:25:47.953Z,1.00
2023-02-21T13:29:33.303Z,1.13
2023-02-21T13:33:31.652Z,1.13
2023-02-21T13:37:01.734Z,0.82
2023-02-21T13:40:53.903Z,1.20
2023-02-21T13:44:14.573Z,1.08
2023-02-21T13:47:26.388Z,0.73
2023-02-21T13:58:44.848Z,0.88
2023-02-21T14:02:23.682Z,1.35
2023-02-21T14:06:18.674Z,1.00
2023-02-21T14:13:59.461Z,0.90
2023-02-21T14:17:21.006Z,1.12
2023-02-21T14:20:26.183Z,1.20
2023-02-21T14:23:56.800Z,1.10
2023-02-21T14:27:41.713Z,1.10
2023-02-21T14:35:44.823Z,0.50
2023-02-21T14:39:14.592Z,0.60
2023-02-21T14:42:44.898Z,0.80
2023-02-21T14:46:29.631Z,0.80
2023-02-21T14:53:56.602Z,0.70
2023-02-21T14:57:31.594Z,0.60
2023-02-21T15:01:10.623Z,0.87
2023-02-21T15:04:37.558Z,0.80
2023-02-21T15:08:18.627Z,0.90
2023-02-21T15:11:31.970Z,0.82
2023-02-21T15:14:54.691Z,0.60
2023-02-21T15:18:08.620Z,2.50
2023-02-21T15:21:31.650Z,0.97
2023-02-21T15:24:46.577Z,0.60
2023-02-21T15:28:02.197Z,0.90
2023-02-21T15:31:15.000Z,0.98
2023-02-21T15:34:41.525Z,0.90
2023-02-21T15:37:57.650Z,0.70
2023-02-21T15:41:52.859Z,0.70
2023-02-21T15:45:30.817Z,0.93
2023-02-21T15:49:02.609Z,0.90
2023-02-21T16:00:32.748Z,0.85
2023-02-21T16:03:56.578Z,0.70
2023-02-21T16:07:22.330Z,0.80
2023-02-21T16:10:28.577Z,0.80
2023-02-21T16:17:45.117Z,1.00
2023-02-21T16:21:08.609Z,1.08
2023-02-21T16:24:27.776Z,1.00
2023-02-21T16:27:50.990Z,1.07
2023-02-21T16:31:03.705Z,0.90
2023-02-21T16:41:49.670Z,0.70
2023-02-21T17:11:29.602Z,0.82
2023-02-21T17:19:47.057Z,0.90
2023-02-21T17:31:00.079Z,0.75
2023-02-21T17:52:22.667Z,1.00
2023-02-21T17:55:31.394Z,1.05
2023-02-21T17:58:39.634Z,0.70
2023-02-21T18:06:24.688Z,1.02
2023-02-21T18:13:20.666Z,1.50
2023-02-21T18:16:29.515Z,1.20
2023-02-21T18:19:40.222Z,1.43
2023-02-21T18:27:28.735Z,1.58
2023-02-21T18:30:37.850Z,1.70
2023-02-21T18:34:07.737Z,1.70
2023-02-21T18:37:16.620Z,1.90
2023-02-21T18:40:27.099Z,1.65
2023-02-21T19:10:27.734Z,2.27
2023-02-21T19:13:49.737Z,2.23
2023-02-21T19:17:07.458Z,2.72
2023-02-21T19:20:12.146Z,3.20
2023-02-21T19:27:34.705Z,2.20
2023-02-21T19:31:03.674Z,2.77
2023-02-21T19:34:22.689Z,2.65
2023-02-21T19:37:56.630Z,2.72
2023-02-21T19:41:05.685Z,2.20
2023-02-21T19:44:55.702Z,2.83
2023-02-21T19:48:04.510Z,2.47
2023-02-21T19:54:40.522Z,3.10
2023-02-21T19:57:58.900Z,2.90
2023-02-21T20:01:43.881Z,2.83
2023-02-21T20:05:10.505Z,4.73
2023-02-21T20:12:16.682Z,3.35
2023-02-21T20:19:30.752Z,2.03
2023-02-21T20:30:17.818Z,2.40
2023-02-21T20:42:29.775Z,1.50
2023-02-21T20:45:44.782Z,1.00
2023-02-21T20:49:22.008Z,1.42
2023-02-21T21:00:30.693Z,7.17
2023-02-21T21:03:39.849Z,6.85
2023-02-21T21:06:48.650Z,6.37
2023-02-21T21:09:57.722Z,6.62
2023-02-21T21:13:06.681Z,6.07
2023-02-21T21:16:15.618Z,6.10
2023-02-21T21:19:35.717Z,5.53
2023-02-21T21:22:37.614Z,5.12
2023-02-21T21:25:52.721Z,5.10
2023-02-21T21:29:07.688Z,3.43
2023-02-21T21:32:13.684Z,2.00
2023-02-21T21:35:28.698Z,1.50
2023-02-21T21:38:43.710Z,1.37
2023-02-21T21:42:01.417Z,1.23
2023-02-21T21:45:12.690Z,1.23
2023-02-21T21:48:21.577Z,1.30
2023-02-21T21:55:55.778Z,1.20
2023-02-21T22:02:26.804Z,1.33
2023-02-21T22:05:38.768Z,1.40
2023-02-21T22:08:53.772Z,1.65
2023-02-21T22:11:55.700Z,1.27
2023-02-21T22:15:13.707Z,1.80
2023-02-21T22:21:49.834Z,1.53
2023-02-21T22:55:36.695Z,1.70
2023-02-21T22:58:46.129Z,1.67
2023-02-21T23:02:29.302Z,1.60
2023-02-21T23:06:26.597Z,1.50
2023-02-21T23:10:10.150Z,1.70
2023-02-21T23:14:07.817Z,1.60
2023-02-21T23:17:56.741Z,1.60
2023-02-21T23:26:40.066Z,1.70
2023-02-21T23:30:16.432Z,1.43
2023-02-21T23:33:51.746Z,1.70
2023-02-21T23:37:23.490Z,1.40
2023-02-21T23:45:07.459Z,1.87
2023-02-21T23:48:39.528Z,1.60
2023-02-21T23:51:53.765Z,1.80
2023-02-21T23:55:03.756Z,1.55
2023-02-21T23:58:40.850Z,1.70
